createdAt,value
2022-10-23T00:01:15.453Z,8.21
2022-10-23T00:03:41.936Z,8.15
2022-10-23T00:06:08.827Z,8.17
2022-10-23T00:08:35.436Z,8.16
2022-10-23T00:11:06.701Z,7.90
2022-10-23T00:13:33.099Z,7.99
2022-10-23T00:15:59.493Z,7.92
2022-10-23T00:18:25.974Z,7.98
2022-10-23T00:20:52.477Z,8.01
2022-10-23T00:23:18.857Z,7.98
2022-10-23T00:25:45.189Z,7.95
2022-10-23T00:28:11.600Z,7.84
2022-10-23T00:30:37.993Z,8.04
2022-10-23T00:33:04.485Z,8.00
2022-10-23T00:35:31.023Z,8.04
2022-10-23T00:37:57.456Z,7.90
2022-10-23T00:40:23.924Z,7.88
2022-10-23T00:42:50.344Z,7.87
2022-10-23T00:45:23.576Z,7.91
2022-10-23T00:47:50.225Z,7.83
2022-10-23T00:50:22.836Z,7.80
2022-10-23T00:52:52.938Z,7.72
2022-10-23T00:55:21.734Z,7.66
2022-10-23T00:57:50.026Z,7.64
2022-10-23T01:00:26.402Z,7.64
2022-10-23T01:02:54.589Z,7.66
2022-10-23T01:05:30.323Z,7.66
2022-10-23T01:08:02.889Z,7.62
2022-10-23T01:10:40.041Z,7.64
2022-10-23T01:13:22.813Z,7.66
2022-10-23T01:16:07.318Z,7.69
2022-10-23T01:18:51.053Z,7.68
2022-10-23T01:21:28.684Z,7.72
2022-10-23T01:24:19.519Z,7.63
2022-10-23T01:27:13.374Z,7.56
2022-10-23T01:29:45.931Z,7.64
2022-10-23T01:32:25.105Z,7.73
2022-10-23T01:35:08.842Z,7.75
2022-10-23T01:37:43.985Z,7.75
2022-10-23T01:40:19.911Z,7.77
2022-10-23T01:42:53.090Z,7.74
2022-10-23T01:45:28.455Z,7.78
2022-10-23T01:47:56.526Z,7.77
2022-10-23T01:50:25.469Z,7.79
2022-10-23T01:52:52.031Z,7.75
2022-10-23T01:55:18.753Z,7.70
2022-10-23T01:57:47.394Z,7.66
2022-10-23T02:00:19.679Z,7.69
2022-10-23T02:02:49.762Z,7.68
2022-10-23T02:05:21.128Z,7.70
2022-10-23T02:07:48.134Z,7.69
2022-10-23T02:10:15.765Z,7.67
2022-10-23T02:12:57.388Z,7.68
2022-10-23T02:15:33.602Z,7.70
2022-10-23T02:18:18.148Z,7.68
2022-10-23T02:20:53.422Z,7.67
2022-10-23T02:23:29.020Z,7.66
2022-10-23T02:26:18.531Z,7.66
2022-10-23T02:28:51.892Z,7.65
2022-10-23T02:31:21.626Z,7.66
2022-10-23T02:33:48.095Z,7.64
2022-10-23T02:36:16.255Z,7.45
2022-10-23T02:38:44.246Z,7.52
2022-10-23T02:41:38.958Z,7.54
2022-10-23T02:44:29.731Z,7.55
2022-10-23T02:47:02.201Z,7.53
2022-10-23T02:49:49.002Z,7.54
2022-10-23T02:52:28.693Z,7.52
2022-10-23T02:54:57.810Z,7.56
2022-10-23T02:57:35.407Z,7.55
2022-10-23T03:00:16.773Z,7.52
2022-10-23T03:03:24.808Z,7.54
2022-10-23T03:05:51.308Z,7.46
2022-10-23T03:08:17.815Z,7.44
2022-10-23T03:10:44.653Z,7.51
2022-10-23T03:13:11.765Z,7.45
2022-10-23T03:15:38.235Z,7.51
2022-10-23T03:18:04.965Z,7.51
2022-10-23T03:20:31.402Z,7.51
2022-10-23T03:22:57.804Z,7.56
2022-10-23T03:25:24.168Z,7.58
2022-10-23T03:27:50.553Z,7.56
2022-10-23T03:30:17.732Z,7.55
2022-10-23T03:32:44.550Z,7.53
2022-10-23T03:35:11.106Z,7.53
2022-10-23T03:37:37.471Z,7.53
2022-10-23T03:40:04.601Z,7.54
2022-10-23T03:42:31.031Z,7.46
2022-10-23T03:44:57.403Z,7.53
2022-10-23T03:47:23.904Z,7.59
2022-10-23T03:49:50.292Z,7.64
2022-10-23T03:52:16.749Z,7.65
2022-10-23T03:54:43.222Z,7.60
2022-10-23T03:57:09.612Z,7.63
2022-10-23T03:59:36.013Z,7.56
2022-10-23T04:02:02.536Z,7.46
2022-10-23T04:04:29.021Z,7.41
2022-10-23T04:06:55.388Z,7.32
2022-10-23T04:09:21.773Z,7.27
2022-10-23T04:11:48.256Z,7.26
2022-10-23T04:14:14.812Z,7.27
2022-10-23T04:16:41.419Z,7.32
2022-10-23T04:19:07.811Z,7.34
2022-10-23T04:21:34.194Z,7.31
2022-10-23T04:24:00.781Z,7.36
2022-10-23T04:26:27.168Z,7.43
2022-10-23T04:28:53.605Z,7.54
2022-10-23T04:31:20.254Z,7.59
2022-10-23T04:33:46.782Z,7.22
2022-10-23T04:36:13.185Z,7.01
2022-10-23T04:38:39.543Z,6.95
2022-10-23T04:41:06.471Z,7.19
2022-10-23T04:43:32.917Z,7.36
2022-10-23T04:45:59.422Z,7.47
2022-10-23T04:48:28.417Z,7.53
2022-10-23T04:50:57.941Z,7.55
2022-10-23T04:53:25.327Z,7.55
2022-10-23T04:55:53.677Z,7.54
2022-10-23T04:58:20.410Z,7.53
2022-10-23T05:00:47.775Z,7.56
2022-10-23T05:03:15.167Z,7.67
2022-10-23T05:05:42.370Z,7.66
2022-10-23T05:08:09.124Z,7.65
2022-10-23T05:10:35.634Z,7.64
2022-10-23T05:13:03.254Z,7.67
2022-10-23T05:15:29.768Z,7.66
2022-10-23T05:18:01.415Z,7.58
2022-10-23T05:20:32.891Z,7.52
2022-10-23T05:23:00.852Z,7.54
2022-10-23T05:25:28.813Z,7.39
2022-10-23T05:27:55.153Z,7.32
2022-10-23T05:30:21.660Z,7.35
2022-10-23T05:32:48.346Z,7.39
2022-10-23T05:35:19.348Z,7.39
2022-10-23T05:37:47.944Z,7.31
2022-10-23T05:40:14.467Z,7.22
2022-10-23T05:42:41.767Z,7.21
2022-10-23T05:45:08.944Z,7.30
2022-10-23T05:47:35.467Z,7.39
2022-10-23T05:50:02.099Z,7.43
2022-10-23T05:52:28.486Z,7.54
2022-10-23T05:54:54.860Z,7.48
2022-10-23T05:57:21.263Z,7.44
2022-10-23T05:59:47.641Z,7.48
2022-10-23T06:02:14.037Z,7.41
2022-10-23T06:04:40.421Z,7.51
2022-10-23T06:07:06.777Z,7.43
2022-10-23T06:09:33.120Z,7.48
2022-10-23T06:12:01.596Z,7.39
2022-10-23T06:14:28.099Z,7.36
2022-10-23T06:16:54.558Z,7.25
2022-10-23T06:19:20.933Z,7.33
2022-10-23T06:21:47.390Z,7.37
2022-10-23T06:24:13.758Z,7.41
2022-10-23T06:26:40.129Z,7.43
2022-10-23T06:29:06.699Z,7.46
2022-10-23T06:31:33.106Z,7.57
2022-10-23T06:34:00.186Z,7.68
2022-10-23T06:36:27.244Z,7.56
2022-10-23T06:38:53.749Z,7.80
2022-10-23T06:41:21.968Z,7.88
2022-10-23T06:43:49.977Z,8.10
2022-10-23T06:46:17.706Z,8.20
2022-10-23T06:48:44.925Z,8.33
2022-10-23T06:51:17.268Z,8.56
2022-10-23T06:53:45.005Z,8.66
2022-10-23T06:56:11.747Z,8.74
2022-10-23T06:58:39.732Z,9.01
2022-10-23T07:01:08.891Z,9.78
2022-10-23T07:03:35.884Z,10.37
2022-10-23T07:06:04.434Z,10.75
2022-10-23T07:08:31.229Z,11.10
2022-10-23T07:10:58.070Z,11.23
2022-10-23T07:13:24.947Z,11.38
2022-10-23T07:15:51.679Z,11.79
2022-10-23T07:18:19.400Z,11.96
2022-10-23T07:20:49.279Z,12.23
2022-10-23T07:23:16.282Z,12.68
2022-10-23T07:25:42.760Z,13.28
2022-10-23T07:28:09.173Z,13.91
2022-10-23T07:30:35.560Z,14.39
2022-10-23T07:33:01.998Z,14.72
2022-10-23T07:35:28.423Z,14.91
2022-10-23T07:37:54.780Z,15.04
2022-10-23T07:40:21.764Z,15.19
2022-10-23T07:42:48.123Z,15.43
2022-10-23T07:45:14.547Z,15.61
2022-10-23T07:47:44.232Z,15.94
2022-10-23T07:50:10.989Z,16.38
2022-10-23T07:52:37.360Z,16.25
2022-10-23T07:55:04.055Z,16.30
2022-10-23T07:57:30.507Z,16.82
2022-10-23T07:59:56.946Z,17.29
2022-10-23T08:02:23.379Z,17.49
2022-10-23T08:04:50.318Z,17.56
2022-10-23T08:07:16.987Z,17.45
2022-10-23T08:09:43.415Z,17.62
2022-10-23T08:12:10.167Z,17.75
2022-10-23T08:14:36.525Z,18.24
2022-10-23T08:17:04.741Z,18.22
2022-10-23T08:19:31.243Z,18.66
2022-10-23T08:21:57.631Z,18.90
2022-10-23T08:24:24.017Z,18.75
2022-10-23T08:26:50.577Z,18.66
2022-10-23T08:29:17.378Z,18.59
2022-10-23T08:31:44.014Z,18.68
2022-10-23T08:34:10.478Z,18.99
2022-10-23T08:36:39.083Z,19.15
2022-10-23T08:39:06.342Z,19.04
2022-10-23T08:41:36.274Z,19.26
2022-10-23T08:44:25.906Z,18.44
2022-10-23T08:46:59.227Z,18.25
2022-10-23T08:49:42.644Z,18.96
2022-10-23T08:52:24.274Z,18.77
2022-10-23T08:54:53.648Z,18.74
2022-10-23T08:57:23.508Z,18.87
2022-10-23T08:59:58.986Z,19.58
2022-10-23T09:02:46.455Z,19.60
2022-10-23T09:05:17.793Z,19.93
2022-10-23T09:08:06.036Z,19.98
2022-10-23T09:10:56.515Z,19.41
2022-10-23T09:13:50.672Z,17.42
2022-10-23T09:16:23.010Z,16.85
2022-10-23T09:18:50.114Z,16.45
2022-10-23T09:21:17.191Z,16.62
2022-10-23T09:23:43.700Z,16.81
2022-10-23T09:26:16.453Z,17.14
2022-10-23T09:29:19.081Z,16.91
2022-10-23T09:31:50.568Z,16.93
2022-10-23T09:34:20.916Z,16.47
2022-10-23T09:37:03.713Z,16.65
2022-10-23T09:39:35.140Z,16.67
2022-10-23T09:42:13.895Z,16.54
2022-10-23T09:44:49.569Z,16.69
2022-10-23T09:47:20.666Z,16.85
2022-10-23T09:49:50.357Z,16.32
2022-10-23T09:52:17.634Z,15.75
2022-10-23T09:54:51.471Z,15.51
2022-10-23T09:57:17.785Z,15.50
2022-10-23T09:59:44.488Z,15.51
2022-10-23T10:02:34.296Z,15.56
2022-10-23T10:05:29.242Z,15.35
2022-10-23T10:08:02.044Z,15.40
2022-10-23T10:10:37.556Z,15.57
2022-10-23T10:13:18.856Z,15.78
2022-10-23T10:15:54.627Z,15.59
2022-10-23T10:18:32.768Z,15.79
2022-10-23T10:21:21.078Z,16.35
2022-10-23T10:24:00.417Z,16.76
2022-10-23T10:26:36.856Z,17.06
2022-10-23T10:29:09.421Z,17.44
2022-10-23T10:31:38.427Z,17.35
2022-10-23T10:34:39.636Z,17.18
2022-10-23T10:37:31.073Z,17.16
2022-10-23T10:40:10.044Z,17.34
2022-10-23T10:43:10.461Z,17.33
2022-10-23T10:45:47.704Z,17.15
2022-10-23T10:48:59.546Z,17.60
2022-10-23T10:51:37.800Z,17.68
2022-10-23T10:54:34.329Z,17.94
2022-10-23T10:57:09.212Z,17.88
2022-10-23T10:59:42.411Z,18.04
2022-10-23T11:02:31.783Z,17.63
2022-10-23T11:05:34.607Z,17.08
2022-10-23T11:08:12.183Z,16.52
2022-10-23T11:10:42.367Z,16.45
2022-10-23T11:13:40.258Z,16.37
2022-10-23T11:16:26.619Z,16.00
2022-10-23T11:19:21.168Z,16.18
2022-10-23T11:22:09.948Z,16.34
2022-10-23T11:24:55.852Z,16.42
2022-10-23T11:27:52.159Z,16.51
2022-10-23T11:30:23.860Z,16.43
2022-10-23T11:33:15.268Z,16.28
2022-10-23T11:35:58.013Z,15.93
2022-10-23T11:38:35.011Z,15.70
2022-10-23T11:41:22.278Z,15.97
2022-10-23T11:44:03.408Z,16.01
2022-10-23T11:46:31.205Z,16.79
2022-10-23T11:48:58.080Z,17.15
2022-10-23T11:51:36.886Z,17.27
2022-10-23T11:54:13.272Z,16.93
2022-10-23T11:57:10.248Z,16.87
2022-10-23T11:59:45.533Z,16.91
2022-10-23T12:02:37.432Z,16.77
2022-10-23T12:05:30.769Z,16.71
2022-10-23T12:08:00.373Z,16.61
2022-10-23T12:10:30.872Z,16.76
2022-10-23T12:12:58.865Z,16.86
2022-10-23T12:15:26.151Z,16.72
2022-10-23T12:17:54.789Z,16.51
2022-10-23T12:20:30.656Z,16.40
2022-10-23T12:23:30.287Z,16.62
2022-10-23T12:26:24.565Z,16.77
2022-10-23T12:29:02.359Z,17.23
2022-10-23T12:31:50.150Z,17.48
2022-10-23T12:34:32.297Z,18.05
2022-10-23T12:37:04.660Z,20.20
2022-10-23T12:39:37.468Z,23.43
2022-10-23T12:42:04.743Z,25.62
2022-10-23T12:44:31.436Z,26.77
2022-10-23T12:47:00.962Z,27.20
2022-10-23T12:49:31.952Z,27.90
2022-10-23T12:51:59.522Z,27.43
2022-10-23T12:54:27.053Z,28.32
2022-10-23T12:56:54.473Z,27.26
2022-10-23T12:59:26.329Z,26.87
2022-10-23T13:01:54.534Z,25.01
2022-10-23T13:04:31.263Z,25.74
2022-10-23T13:07:04.031Z,25.76
2022-10-23T13:09:36.009Z,24.61
2022-10-23T13:12:05.008Z,23.64
2022-10-23T13:14:44.518Z,23.25
2022-10-23T13:17:11.689Z,23.63
2022-10-23T13:19:38.403Z,23.19
2022-10-23T13:22:16.836Z,22.32
2022-10-23T13:24:43.757Z,21.73
2022-10-23T13:27:43.153Z,22.07
2022-10-23T13:30:32.404Z,21.63
2022-10-23T13:32:59.654Z,21.65
2022-10-23T13:35:26.766Z,21.44
2022-10-23T13:37:53.247Z,20.89
2022-10-23T13:40:26.095Z,20.61
2022-10-23T13:42:54.165Z,20.40
2022-10-23T13:45:24.697Z,20.07
2022-10-23T13:47:51.223Z,19.59
2022-10-23T13:50:18.906Z,19.23
2022-10-23T13:52:46.386Z,19.43
2022-10-23T13:55:24.335Z,19.19
2022-10-23T13:57:51.343Z,18.99
2022-10-23T14:00:18.206Z,19.00
2022-10-23T14:02:44.895Z,18.77
2022-10-23T14:05:12.084Z,18.73
2022-10-23T14:07:38.492Z,18.76
2022-10-23T14:10:05.460Z,17.99
2022-10-23T14:12:39.187Z,18.08
2022-10-23T14:15:06.276Z,17.78
2022-10-23T14:17:34.743Z,17.63
2022-10-23T14:20:03.072Z,17.79
2022-10-23T14:22:31.590Z,17.88
2022-10-23T14:24:57.987Z,17.36
2022-10-23T14:27:24.454Z,17.71
2022-10-23T14:29:50.876Z,17.99
2022-10-23T14:32:17.369Z,18.30
2022-10-23T14:34:45.787Z,18.39
2022-10-23T14:37:12.241Z,18.35
2022-10-23T14:39:38.652Z,18.39
2022-10-23T14:42:05.148Z,18.27
2022-10-23T14:44:31.664Z,18.15
2022-10-23T14:46:59.489Z,18.20
2022-10-23T14:49:25.935Z,18.25
2022-10-23T14:51:52.321Z,18.10
2022-10-23T14:54:18.784Z,17.93
2022-10-23T14:56:45.266Z,17.80
2022-10-23T14:59:13.272Z,17.66
2022-10-23T15:01:45.397Z,17.65
2022-10-23T15:04:15.200Z,17.60
2022-10-23T15:06:42.313Z,17.67
2022-10-23T15:09:08.966Z,17.04
2022-10-23T15:11:35.329Z,17.15
2022-10-23T15:14:01.901Z,16.74
2022-10-23T15:16:28.493Z,16.81
2022-10-23T15:18:54.963Z,17.13
2022-10-23T15:21:21.375Z,17.10
2022-10-23T15:23:48.471Z,17.01
2022-10-23T15:26:20.992Z,16.69
2022-10-23T15:28:52.138Z,16.85
2022-10-23T15:31:40.904Z,16.70
2022-10-23T15:34:13.507Z,16.68
2022-10-23T15:36:40.221Z,16.82
2022-10-23T15:39:08.878Z,16.81
2022-10-23T15:41:36.949Z,16.77
2022-10-23T15:44:04.901Z,16.86
2022-10-23T15:46:31.363Z,16.78
2022-10-23T15:48:57.943Z,16.69
2022-10-23T15:51:24.817Z,16.46
2022-10-23T15:53:52.151Z,16.25
2022-10-23T15:56:18.532Z,16.29
2022-10-23T15:58:45.727Z,16.16
2022-10-23T16:01:12.439Z,16.12
2022-10-23T16:03:39.091Z,15.91
2022-10-23T16:06:08.425Z,16.04
2022-10-23T16:08:35.799Z,16.19
2022-10-23T16:11:03.325Z,16.11
2022-10-23T16:13:29.735Z,16.19
2022-10-23T16:15:56.160Z,16.23
2022-10-23T16:18:23.308Z,16.27
2022-10-23T16:20:55.427Z,16.32
2022-10-23T16:23:22.321Z,16.22
2022-10-23T16:25:48.753Z,16.14
2022-10-23T16:28:15.170Z,16.11
2022-10-23T16:30:42.479Z,16.28
2022-10-23T16:33:09.769Z,16.31
2022-10-23T16:35:36.920Z,16.19
2022-10-23T16:38:03.731Z,16.17
2022-10-23T16:40:30.467Z,16.20
2022-10-23T16:42:58.330Z,16.11
2022-10-23T16:45:24.796Z,16.17
2022-10-23T16:47:51.190Z,16.13
2022-10-23T16:50:17.762Z,16.06
2022-10-23T16:52:44.341Z,16.06
2022-10-23T16:55:10.964Z,16.06
2022-10-23T16:57:37.618Z,15.97
2022-10-23T17:00:05.380Z,16.08
2022-10-23T17:02:32.203Z,16.23
2022-10-23T17:04:58.774Z,16.16
2022-10-23T17:07:25.382Z,16.26
2022-10-23T17:09:51.738Z,16.27
2022-10-23T17:12:18.181Z,16.33
2022-10-23T17:14:44.588Z,16.41
2022-10-23T17:17:10.996Z,16.31
2022-10-23T17:19:45.573Z,16.09
2022-10-23T17:22:13.267Z,16.07
2022-10-23T17:24:41.083Z,16.04
2022-10-23T17:27:08.069Z,16.07
2022-10-23T17:29:34.644Z,16.05
2022-10-23T17:32:01.275Z,16.17
2022-10-23T17:34:27.709Z,16.20
2022-10-23T17:36:55.209Z,16.21
2022-10-23T17:39:26.326Z,16.06
2022-10-23T17:41:53.178Z,16.00
2022-10-23T17:44:19.807Z,16.14
2022-10-23T17:46:46.411Z,16.18
2022-10-23T17:49:13.276Z,16.11
2022-10-23T17:51:39.693Z,16.07
2022-10-23T17:54:08.969Z,16.15
2022-10-23T17:56:37.589Z,16.12
2022-10-23T17:59:10.200Z,16.27
2022-10-23T18:01:36.843Z,16.17
2022-10-23T18:04:06.705Z,15.85
2022-10-23T18:06:36.485Z,15.88
2022-10-23T18:09:05.030Z,15.73
2022-10-23T18:11:34.561Z,15.57
2022-10-23T18:14:01.580Z,15.97
2022-10-23T18:16:28.872Z,16.19
2022-10-23T18:18:55.931Z,15.96
2022-10-23T18:21:24.202Z,15.89
2022-10-23T18:23:51.340Z,15.78
2022-10-23T18:26:21.098Z,15.51
2022-10-23T18:28:49.886Z,15.40
2022-10-23T18:31:18.503Z,15.24
2022-10-23T18:33:45.792Z,15.29
2022-10-23T18:36:23.348Z,15.26
2022-10-23T18:38:50.489Z,15.30
2022-10-23T18:41:18.823Z,15.36
2022-10-23T18:43:45.819Z,15.42
2022-10-23T18:46:13.319Z,15.46
2022-10-23T18:48:40.162Z,15.46
2022-10-23T18:51:23.254Z,15.35
2022-10-23T18:53:50.625Z,15.53
2022-10-23T18:56:22.729Z,15.65
2022-10-23T18:58:50.999Z,15.64
2022-10-23T19:01:19.050Z,15.80
2022-10-23T19:03:45.954Z,15.66
2022-10-23T19:06:12.486Z,15.63
2022-10-23T19:08:40.592Z,15.57
2022-10-23T19:11:07.968Z,15.45
2022-10-23T19:13:39.099Z,15.52
2022-10-23T19:16:16.365Z,15.63
2022-10-23T19:18:46.996Z,15.63
2022-10-23T19:21:14.022Z,15.57
2022-10-23T19:23:42.283Z,15.54
2022-10-23T19:26:11.927Z,15.41
2022-10-23T19:28:41.070Z,15.34
2022-10-23T19:31:09.782Z,15.30
2022-10-23T19:33:38.416Z,15.11
2022-10-23T19:36:07.912Z,15.11
2022-10-23T19:38:36.521Z,14.88
2022-10-23T19:41:03.915Z,15.04
2022-10-23T19:43:30.441Z,15.05
2022-10-23T19:45:59.325Z,15.10
2022-10-23T19:48:25.727Z,15.15
2022-10-23T19:50:52.191Z,14.91
2022-10-23T19:53:18.588Z,15.03
2022-10-23T19:55:44.988Z,15.11
2022-10-23T19:58:11.393Z,15.13
2022-10-23T20:00:37.855Z,15.06
2022-10-23T20:03:04.479Z,15.16
2022-10-23T20:05:31.800Z,15.10
2022-10-23T20:07:58.349Z,15.09
2022-10-23T20:10:25.844Z,15.05
2022-10-23T20:12:56.655Z,15.07
2022-10-23T20:15:28.924Z,15.15
2022-10-23T20:17:55.261Z,14.95
2022-10-23T20:20:21.713Z,15.06
2022-10-23T20:22:52.059Z,15.10
2022-10-23T20:25:21.210Z,15.01
2022-10-23T20:27:47.566Z,15.01
2022-10-23T20:30:13.996Z,15.13
2022-10-23T20:32:40.362Z,15.12
2022-10-23T20:35:07.771Z,15.19
2022-10-23T20:37:34.139Z,15.25
2022-10-23T20:40:00.509Z,15.44
2022-10-23T20:42:26.871Z,15.42
2022-10-23T20:44:53.217Z,15.44
2022-10-23T20:47:19.575Z,15.35
2022-10-23T20:49:47.762Z,15.46
2022-10-23T20:52:14.217Z,15.47
2022-10-23T20:54:40.594Z,15.43
2022-10-23T20:57:07.096Z,15.41
2022-10-23T20:59:34.088Z,15.40
2022-10-23T21:02:00.560Z,15.48
2022-10-23T21:04:28.407Z,15.45
2022-10-23T21:07:10.077Z,15.39
2022-10-23T21:09:37.754Z,15.42
2022-10-23T21:12:04.520Z,15.37
2022-10-23T21:14:31.002Z,15.32
2022-10-23T21:16:57.550Z,15.23
2022-10-23T21:19:23.916Z,14.98
2022-10-23T21:21:50.294Z,15.06
2022-10-23T21:24:17.315Z,15.10
2022-10-23T21:26:44.871Z,15.16
2022-10-23T21:29:20.250Z,15.13
2022-10-23T21:31:59.155Z,15.08
2022-10-23T21:34:26.634Z,15.00
2022-10-23T21:37:11.957Z,15.02
2022-10-23T21:39:39.283Z,14.98
2022-10-23T21:42:05.813Z,14.85
2022-10-23T21:44:32.708Z,14.98
2022-10-23T21:46:59.119Z,14.92
2022-10-23T21:49:25.480Z,14.88
2022-10-23T21:51:52.075Z,14.85
2022-10-23T21:54:18.514Z,14.63
2022-10-23T21:56:47.669Z,14.62
2022-10-23T21:59:16.284Z,14.54
2022-10-23T22:01:45.306Z,15.22
2022-10-23T22:04:14.135Z,15.72
2022-10-23T22:06:41.731Z,15.94
2022-10-23T22:09:09.320Z,16.15
2022-10-23T22:11:35.688Z,16.23
2022-10-23T22:14:02.193Z,16.22
2022-10-23T22:16:30.357Z,16.31
2022-10-23T22:18:57.181Z,16.33
2022-10-23T22:21:26.708Z,16.33
2022-10-23T22:23:57.737Z,16.37
2022-10-23T22:26:40.162Z,16.32
2022-10-23T22:29:09.309Z,16.26
2022-10-23T22:31:36.611Z,16.06
2022-10-23T22:34:18.519Z,16.16
2022-10-23T22:36:53.193Z,16.24
2022-10-23T22:39:19.608Z,16.20
2022-10-23T22:41:47.443Z,16.12
2022-10-23T22:44:14.795Z,15.84
2022-10-23T22:46:42.300Z,15.67
2022-10-23T22:49:09.026Z,15.34
2022-10-23T22:51:36.728Z,14.71
2022-10-23T22:54:03.136Z,14.61
2022-10-23T22:56:30.288Z,14.63
2022-10-23T22:58:57.073Z,14.72
2022-10-23T23:01:32.861Z,14.67
2022-10-23T23:04:08.734Z,14.66
2022-10-23T23:06:46.763Z,14.50
2022-10-23T23:09:17.878Z,14.68
2022-10-23T23:11:51.524Z,14.43
2022-10-23T23:14:22.098Z,14.43
2022-10-23T23:16:50.502Z,14.50
2022-10-23T23:19:17.048Z,14.55
2022-10-23T23:21:43.448Z,14.72
2022-10-23T23:24:11.559Z,14.45
2022-10-23T23:26:37.935Z,14.42
2022-10-23T23:29:04.306Z,14.54
2022-10-23T23:31:30.694Z,14.40
2022-10-23T23:33:57.191Z,14.53
2022-10-23T23:36:26.544Z,14.55
2022-10-23T23:38:53.836Z,14.61
2022-10-23T23:41:21.532Z,14.67
2022-10-23T23:43:48.788Z,14.82
2022-10-23T23:46:15.823Z,14.87
2022-10-23T23:48:47.265Z,14.78
2022-10-23T23:51:19.017Z,14.73
2022-10-23T23:53:45.453Z,14.71
2022-10-23T23:56:11.838Z,14.80
2022-10-23T23:58:38.241Z,14.67
